Time;durP1;ratioP1;P1;durP2;ratioP2;P2;SDS_P1;SDS_P2;PMS_P1;PMS_P2;Temp;Humidity;BMP_temperature;BMP_pressure;BME280_temperature;BME280_humidity;BME280_pressure;Samples;Min_cycle;Max_cycle;Signal;HPM_P1;HPM_P2
2023/07/04 00:01:48;;;;;;;13.65;2.45;;;12.30;99.90;;;;;;4954455;28;219544;-69
2023/07/04 00:04:18;;;;;;;12.45;2.38;;;12.20;99.90;;;;;;4983805;28;20062;-69
2023/07/04 00:06:47;;;;;;;14.60;2.33;;;12.20;99.90;;;;;;4945033;28;209150;-70
2023/07/04 00:09:14;;;;;;;15.52;2.53;;;12.20;99.90;;;;;;5005953;28;20049;-68
2023/07/04 00:11:40;;;;;;;15.18;2.38;;;12.10;99.90;;;;;;4957163;28;206492;-69
2023/07/04 00:14:07;;;;;;;13.15;2.85;;;12.10;99.90;;;;;;4993909;28;20053;-68
2023/07/04 00:16:33;;;;;;;12.55;2.38;;;12.10;99.90;;;;;;4941718;28;210687;-70
2023/07/04 00:19:03;;;;;;;15.68;2.50;;;12.10;99.90;;;;;;4987232;28;20054;-69
2023/07/04 00:21:30;;;;;;;13.10;2.30;;;12.10;99.90;;;;;;4947354;28;223261;-70
2023/07/04 00:23:56;;;;;;;14.27;2.25;;;12.10;99.90;;;;;;4990759;28;20060;-69
2023/07/04 00:26:24;;;;;;;13.73;2.20;;;12.10;99.90;;;;;;4935792;28;215478;-68
2023/07/04 00:28:50;;;;;;;13.10;2.00;;;12.00;99.90;;;;;;4989576;28;20057;-69
2023/07/04 00:31:19;;;;;;;13.43;2.42;;;12.00;99.90;;;;;;4962459;28;207069;-69
2023/07/04 00:33:46;;;;;;;12.10;2.25;;;11.90;99.90;;;;;;5012377;28;20054;-69
2023/07/04 00:36:18;;;;;;;13.52;2.40;;;11.90;99.90;;;;;;4946516;28;207826;-68
2023/07/04 00:38:48;;;;;;;15.50;2.58;;;11.90;99.90;;;;;;4986236;28;20413;-70
2023/07/04 00:41:21;;;;;;;11.93;2.30;;;11.90;99.90;;;;;;4950115;28;208103;-69
2023/07/04 00:44:11;;;;;;;15.43;2.40;;;11.90;99.90;;;;;;4991205;28;20053;-69
2023/07/04 00:46:45;;;;;;;15.68;2.22;;;11.80;99.90;;;;;;4933057;28;210826;-69
2023/07/04 00:49:20;;;;;;;13.20;2.17;;;11.80;99.90;;;;;;4985075;28;20050;-69
2023/07/04 00:51:57;;;;;;;10.57;1.88;;;11.80;99.90;;;;;;4951430;28;207833;-69
2023/07/04 00:54:26;;;;;;;12.68;2.10;;;11.80;99.90;;;;;;4986590;28;20051;-69
2023/07/04 00:56:57;;;;;;;13.90;2.20;;;11.80;99.90;;;;;;4928645;28;210504;-69
2023/07/04 00:59:23;;;;;;;16.10;2.17;;;11.80;99.90;;;;;;4984922;28;20046;-70
2023/07/04 01:01:49;;;;;;;11.60;2.20;;;11.80;99.90;;;;;;4955456;28;223821;-68
2023/07/04 01:04:18;;;;;;;15.10;2.40;;;11.80;99.90;;;;;;4979471;28;20058;-69
2023/07/04 01:06:59;;;;;;;11.00;2.20;;;11.80;99.90;;;;;;4958617;28;208051;-69
2023/07/04 01:09:27;;;;;;;13.13;2.25;;;11.80;99.90;;;;;;4986857;28;20061;-68
2023/07/04 01:11:53;;;;;;;9.70;1.90;;;11.80;99.90;;;;;;4953757;28;213035;-68
2023/07/04 01:14:22;;;;;;;12.38;2.00;;;11.80;99.90;;;;;;4983051;28;20057;-69
2023/07/04 01:16:52;;;;;;;12.32;2.17;;;11.80;99.90;;;;;;4954881;28;207386;-69
2023/07/04 01:19:25;;;;;;;14.43;2.13;;;11.80;99.90;;;;;;4978445;28;20054;-70
2023/07/04 01:21:59;;;;;;;13.57;2.58;;;11.80;99.90;;;;;;4973776;28;207086;-68
2023/07/04 01:24:52;;;;;;;10.05;2.10;;;11.80;99.90;;;;;;4999787;28;20070;-69
2023/07/04 01:27:21;;;;;;;12.02;2.30;;;11.70;99.90;;;;;;4921930;28;87413;-69
2023/07/04 01:29:47;;;;;;;9.75;2.22;;;11.70;99.90;;;;;;4989822;28;20058;-69
2023/07/04 01:32:14;;;;;;;14.13;2.28;;;11.70;99.90;;;;;;4954758;28;102344;-69
2023/07/04 01:34:41;;;;;;;12.50;2.65;;;11.70;99.90;;;;;;4985006;28;20058;-70
2023/07/04 01:37:07;;;;;;;14.82;2.53;;;11.80;99.90;;;;;;4965294;28;215526;-69
2023/07/04 01:39:33;;;;;;;10.70;2.25;;;11.80;99.90;;;;;;4984941;28;20042;-69
2023/07/04 01:42:04;;;;;;;10.90;1.98;;;11.80;99.90;;;;;;4936022;28;214494;-70
2023/07/04 01:44:30;;;;;;;13.43;2.50;;;11.80;99.90;;;;;;4985310;28;20058;-69
2023/07/04 01:46:57;;;;;;;15.05;2.65;;;11.80;99.90;;;;;;4965669;28;224184;-69
2023/07/04 01:49:23;;;;;;;11.88;2.50;;;11.80;99.90;;;;;;5008494;28;20042;-69
2023/07/04 01:51:49;;;;;;;12.82;2.42;;;11.80;99.90;;;;;;4964475;28;207049;-68
2023/07/04 01:54:18;;;;;;;13.15;2.17;;;11.80;99.90;;;;;;4989341;28;20062;-70
2023/07/04 01:56:51;;;;;;;10.75;2.28;;;11.80;99.90;;;;;;4922753;28;209291;-69
2023/07/04 01:59:17;;;;;;;10.15;2.13;;;11.90;99.90;;;;;;4988898;28;20047;-69
2023/07/04 02:01:43;;;;;;;12.38;2.30;;;11.90;99.90;;;;;;4932933;28;208055;-69
2023/07/04 02:04:10;;;;;;;12.00;2.75;;;11.90;99.90;;;;;;4985155;28;20405;-69
2023/07/04 02:06:36;;;;;;;11.73;2.65;;;11.90;99.90;;;;;;4954814;28;215724;-70
2023/07/04 02:09:02;;;;;;;11.10;2.60;;;11.90;99.90;;;;;;4991510;28;20061;-70
2023/07/04 02:11:28;;;;;;;15.20;3.03;;;12.00;99.90;;;;;;4968828;28;218355;-70
2023/07/04 02:13:57;;;;;;;12.25;3.08;;;12.00;99.90;;;;;;4991745;28;20050;-69
2023/07/04 02:16:24;;;;;;;15.73;3.70;;;12.00;99.90;;;;;;4967781;28;210816;-69
2023/07/04 02:18:50;;;;;;;17.52;3.38;;;12.10;99.90;;;;;;5014064;28;20045;-68
2023/07/04 02:21:16;;;;;;;16.92;3.78;;;12.10;99.90;;;;;;4940201;28;220693;-68
2023/07/04 02:23:42;;;;;;;23.90;4.38;;;12.10;99.90;;;;;;4997069;28;20061;-69
2023/07/04 02:26:08;;;;;;;19.70;4.65;;;12.10;99.90;;;;;;4956551;28;221245;-69
2023/07/04 02:28:36;;;;;;;18.15;4.38;;;12.20;99.90;;;;;;4993634;28;20619;-69
2023/07/04 02:31:02;;;;;;;19.95;4.95;;;12.10;99.90;;;;;;4941587;28;205669;-69
2023/07/04 02:33:28;;;;;;;24.55;5.80;;;12.10;99.90;;;;;;4993125;28;20446;-69
2023/07/04 02:35:54;;;;;;;26.15;6.50;;;12.20;99.90;;;;;;4952149;28;216795;-69
2023/07/04 02:38:22;;;;;;;16.42;5.38;;;12.20;99.90;;;;;;4992814;28;20046;-70
2023/07/04 02:40:52;;;;;;;24.63;6.07;;;12.30;99.90;;;;;;4944666;28;216073;-70
2023/07/04 02:43:18;;;;;;;24.73;5.88;;;12.30;99.90;;;;;;4995756;28;20046;-70
2023/07/04 02:45:45;;;;;;;23.98;5.97;;;12.40;99.90;;;;;;4953563;28;207291;-69
2023/07/04 02:48:11;;;;;;;18.23;5.47;;;12.40;99.90;;;;;;5008187;28;20414;-69
2023/07/04 02:50:38;;;;;;;22.85;5.40;;;12.40;99.90;;;;;;4966999;28;207170;-69
2023/07/04 02:53:06;;;;;;;23.60;5.60;;;12.40;99.90;;;;;;5013364;28;20061;-68
2023/07/04 02:55:34;;;;;;;21.98;5.70;;;12.40;99.90;;;;;;4930814;28;209722;-70
2023/07/04 02:58:00;;;;;;;25.10;6.43;;;12.50;99.90;;;;;;4995549;28;20428;-69
2023/07/04 03:00:26;;;;;;;20.70;6.43;;;12.50;99.90;;;;;;4939260;28;207224;-70
2023/07/04 03:02:53;;;;;;;16.20;5.25;;;12.50;99.90;;;;;;4999977;28;20054;-69
2023/07/04 03:05:19;;;;;;;20.15;5.38;;;12.50;99.90;;;;;;4932100;28;229934;-69
2023/07/04 03:07:45;;;;;;;15.52;6.10;;;12.50;99.90;;;;;;4963354;28;20054;-69
2023/07/04 03:10:11;;;;;;;22.60;6.03;;;12.60;99.90;;;;;;4921212;28;212641;-68
2023/07/04 03:12:37;;;;;;;19.67;5.20;;;12.60;99.90;;;;;;4992717;28;20065;-69
2023/07/04 03:15:06;;;;;;;17.63;5.45;;;12.60;99.90;;;;;;4929077;28;210032;-68
2023/07/04 03:17:32;;;;;;;21.17;5.35;;;12.60;99.90;;;;;;4982266;28;20563;-70
2023/07/04 03:19:58;;;;;;;18.90;5.20;;;12.70;99.90;;;;;;4933686;28;209239;-68
2023/07/04 03:22:24;;;;;;;18.13;5.43;;;12.60;99.90;;;;;;4997072;28;20050;-68
2023/07/04 03:24:50;;;;;;;17.63;4.80;;;12.70;99.90;;;;;;4970401;28;211028;-67
2023/07/04 03:27:16;;;;;;;17.05;5.13;;;12.70;99.90;;;;;;4967077;28;247714;-68
2023/07/04 03:29:42;;;;;;;15.65;4.63;;;12.70;99.90;;;;;;4996405;28;20062;-69
2023/07/04 03:32:08;;;;;;;14.95;4.70;;;12.70;99.90;;;;;;4969731;28;207707;-68
2023/07/04 03:34:34;;;;;;;15.25;4.88;;;12.70;99.90;;;;;;4983730;28;20050;-68
2023/07/04 03:37:01;;;;;;;17.23;4.63;;;12.60;99.90;;;;;;4956841;28;208873;-69
2023/07/04 03:39:27;;;;;;;18.08;4.65;;;12.60;99.90;;;;;;5001259;28;20065;-70
2023/07/04 03:41:53;;;;;;;13.60;4.43;;;12.60;99.90;;;;;;4951985;28;208315;-69
2023/07/04 03:44:19;;;;;;;20.48;4.80;;;12.60;99.90;;;;;;4986555;28;20061;-68
2023/07/04 03:46:45;;;;;;;15.73;4.40;;;12.60;99.90;;;;;;4929193;28;207000;-69
2023/07/04 03:49:11;;;;;;;15.70;4.55;;;12.60;99.90;;;;;;4989922;28;20046;-69
2023/07/04 03:51:37;;;;;;;16.52;4.40;;;12.60;99.90;;;;;;4936652;28;161123;-69
2023/07/04 03:54:03;;;;;;;13.10;4.25;;;12.60;99.90;;;;;;4995241;28;20059;-69
2023/07/04 03:56:29;;;;;;;16.30;4.88;;;12.60;99.90;;;;;;4930848;28;208638;-69
2023/07/04 03:58:56;;;;;;;13.85;4.47;;;12.60;99.90;;;;;;4993323;28;20063;-69
2023/07/04 04:01:24;;;;;;;16.05;5.00;;;12.60;99.90;;;;;;4941759;28;215778;-69
2023/07/04 04:03:53;;;;;;;16.42;5.25;;;12.70;99.90;;;;;;4990385;28;20057;-69
2023/07/04 04:06:21;;;;;;;18.15;5.63;;;12.70;99.90;;;;;;4938256;28;208275;-69
2023/07/04 04:08:47;;;;;;;16.48;5.28;;;12.70;99.90;;;;;;4993087;28;20057;-69
2023/07/04 04:11:13;;;;;;;13.57;4.97;;;12.70;99.90;;;;;;4939004;28;202228;-69
2023/07/04 04:13:39;;;;;;;16.42;4.80;;;12.80;99.90;;;;;;5007039;28;20072;-69
2023/07/04 04:16:06;;;;;;;18.75;4.97;;;12.80;99.90;;;;;;4945555;28;208765;-69
2023/07/04 04:18:32;;;;;;;19.58;5.03;;;12.80;99.90;;;;;;4989890;28;20526;-69
2023/07/04 04:20:58;;;;;;;14.63;4.57;;;12.80;99.90;;;;;;4949740;28;207637;-70
2023/07/04 04:23:24;;;;;;;18.67;4.93;;;12.80;99.90;;;;;;4998775;28;20050;-69
2023/07/04 04:25:50;;;;;;;18.02;4.80;;;12.80;99.90;;;;;;4940523;28;213013;-70
2023/07/04 04:28:16;;;;;;;16.33;5.10;;;12.80;99.90;;;;;;4987057;28;20054;-69
2023/07/04 04:30:43;;;;;;;19.90;4.80;;;12.90;99.90;;;;;;4934048;28;211038;-69
2023/07/04 04:33:09;;;;;;;20.17;4.90;;;12.90;99.90;;;;;;4974704;28;20471;-70
2023/07/04 04:35:39;;;;;;;13.05;4.20;;;13.00;99.90;;;;;;4950558;28;206161;-68
2023/07/04 04:38:08;;;;;;;14.63;4.30;;;13.10;99.90;;;;;;5017561;28;20053;-70
2023/07/04 04:40:34;;;;;;;13.93;4.65;;;13.10;99.90;;;;;;4938077;28;212840;-69
2023/07/04 04:43:00;;;;;;;17.65;4.72;;;13.20;99.90;;;;;;5015465;28;20050;-69
2023/07/04 04:45:28;;;;;;;18.17;4.85;;;13.20;99.90;;;;;;4958641;28;209168;-69
2023/07/04 04:48:01;;;;;;;21.05;4.97;;;13.20;99.90;;;;;;5014201;28;20058;-69
2023/07/04 04:50:31;;;;;;;17.85;4.53;;;13.30;99.90;;;;;;4952036;28;211267;-68
2023/07/04 04:52:59;;;;;;;18.80;4.43;;;13.30;99.90;;;;;;4995080;28;20050;-68
2023/07/04 04:55:25;;;;;;;14.55;4.80;;;13.30;99.90;;;;;;4926721;28;206894;-68
2023/07/04 04:57:52;;;;;;;18.63;4.78;;;13.40;99.90;;;;;;4980789;28;20030;-69
2023/07/04 05:00:19;;;;;;;17.55;4.35;;;13.40;99.90;;;;;;4936145;28;207080;-69
2023/07/04 05:02:45;;;;;;;18.75;4.32;;;13.40;99.90;;;;;;4963029;28;20416;-69
2023/07/04 05:05:12;;;;;;;14.68;3.92;;;13.50;99.90;;;;;;4935262;28;228097;-69
2023/07/04 05:07:38;;;;;;;17.25;4.10;;;13.50;99.90;;;;;;5008148;28;20073;-69
2023/07/04 05:10:05;;;;;;;14.27;4.28;;;13.50;99.90;;;;;;4932998;28;207051;-71
2023/07/04 05:12:32;;;;;;;14.48;4.20;;;13.60;99.90;;;;;;5001758;28;20051;-68
2023/07/04 05:14:58;;;;;;;17.77;4.03;;;13.60;99.90;;;;;;4975497;28;184512;-69
2023/07/04 05:17:24;;;;;;;16.52;3.83;;;13.60;99.90;;;;;;4983820;28;20049;-69
2023/07/04 05:19:51;;;;;;;12.85;4.07;;;13.70;99.90;;;;;;4981768;28;20059;-69
2023/07/04 05:22:21;;;;;;;17.83;3.90;;;13.80;99.90;;;;;;4959214;28;236306;-68
2023/07/04 05:24:47;;;;;;;14.77;4.03;;;13.80;99.90;;;;;;4986172;28;20061;-70
2023/07/04 05:27:15;;;;;;;16.98;3.45;;;13.80;99.90;;;;;;4910467;28;210500;-69
2023/07/04 05:29:41;;;;;;;15.07;3.60;;;13.90;99.90;;;;;;4987999;28;20117;-68
2023/07/04 05:32:08;;;;;;;18.17;3.78;;;13.80;99.90;;;;;;4936064;28;202014;-69
2023/07/04 05:34:34;;;;;;;13.98;3.70;;;13.90;99.90;;;;;;4984274;28;20114;-68
2023/07/04 05:37:03;;;;;;;16.25;3.60;;;13.90;99.90;;;;;;4945450;28;207800;-68
2023/07/04 05:39:30;;;;;;;17.35;3.67;;;14.00;99.90;;;;;;4990639;28;20054;-68
2023/07/04 05:41:56;;;;;;;11.27;2.97;;;14.10;99.90;;;;;;4966933;28;208618;-69
2023/07/04 05:44:22;;;;;;;12.27;3.33;;;14.10;99.90;;;;;;4991503;28;20046;-69
2023/07/04 05:46:49;;;;;;;14.60;3.25;;;14.10;99.90;;;;;;4937797;28;212494;-69
2023/07/04 05:49:15;;;;;;;17.58;3.67;;;14.20;99.90;;;;;;4986460;28;20046;-69
2023/07/04 05:51:41;;;;;;;14.35;3.50;;;14.30;99.90;;;;;;4967797;28;212623;-69
2023/07/04 05:54:10;;;;;;;12.15;3.10;;;14.30;99.90;;;;;;4997593;28;20055;-68
2023/07/04 05:56:36;;;;;;;16.80;3.35;;;14.40;99.90;;;;;;4942628;28;200046;-68
2023/07/04 05:59:02;;;;;;;13.77;3.08;;;14.40;99.90;;;;;;4995210;28;20057;-70
2023/07/04 06:01:32;;;;;;;16.00;2.88;;;14.40;99.90;;;;;;4959088;28;207722;-67
2023/07/04 06:04:00;;;;;;;15.20;3.00;;;14.40;99.90;;;;;;5018853;28;20054;-68
2023/07/04 06:06:31;;;;;;;11.90;2.90;;;14.50;99.90;;;;;;4953479;28;211905;-68
2023/07/04 06:08:59;;;;;;;14.45;2.40;;;14.60;99.90;;;;;;4995504;28;20062;-69
2023/07/04 06:11:29;;;;;;;10.00;1.98;;;14.50;99.90;;;;;;4944907;28;206950;-70
2023/07/04 06:13:55;;;;;;;13.32;2.55;;;14.60;99.90;;;;;;5009398;28;20100;-68
2023/07/04 06:16:22;;;;;;;13.52;2.10;;;14.80;99.90;;;;;;4976291;28;203775;-69
2023/07/04 06:18:49;;;;;;;10.85;2.10;;;14.90;99.90;;;;;;5007943;28;20065;-69
2023/07/04 06:21:17;;;;;;;11.15;2.30;;;15.00;99.90;;;;;;4945969;28;206971;-68
2023/07/04 06:23:44;;;;;;;11.18;1.95;;;15.10;99.90;;;;;;4998262;28;20061;-68
2023/07/04 06:26:11;;;;;;;12.88;1.90;;;15.10;99.90;;;;;;4948164;28;256386;-68
2023/07/04 06:28:38;;;;;;;10.52;1.80;;;15.10;99.90;;;;;;5005251;28;20069;-67
2023/07/04 06:31:06;;;;;;;10.98;2.17;;;15.10;99.90;;;;;;4961057;28;210398;-67
2023/07/04 06:33:32;;;;;;;11.25;1.90;;;15.00;99.90;;;;;;5014297;28;20080;-68
2023/07/04 06:36:00;;;;;;;10.77;1.90;;;15.00;99.90;;;;;;4951067;28;220463;-68
2023/07/04 06:38:27;;;;;;;15.13;1.98;;;15.10;99.90;;;;;;5010684;28;20057;-67
2023/07/04 06:41:01;;;;;;;10.35;1.85;;;15.20;99.90;;;;;;4963213;28;207482;-68
2023/07/04 06:43:29;;;;;;;6.95;1.50;;;15.20;99.90;;;;;;5007473;28;20054;-68
2023/07/04 06:45:56;;;;;;;12.00;2.00;;;15.40;99.90;;;;;;4957446;28;212556;-68
2023/07/04 06:48:23;;;;;;;7.95;1.50;;;15.40;99.90;;;;;;5014481;28;20549;-68
2023/07/04 06:50:58;;;;;;;8.73;1.77;;;15.40;99.90;;;;;;4848625;28;2993876;-68
2023/07/04 06:53:26;;;;;;;13.45;2.20;;;15.50;99.90;;;;;;4996337;28;20062;-68
2023/07/04 06:55:52;;;;;;;13.23;1.92;;;15.60;99.90;;;;;;4934590;28;230523;-69
2023/07/04 06:58:21;;;;;;;14.52;2.00;;;15.60;99.90;;;;;;5001498;28;20053;-69
2023/07/04 07:00:54;;;;;;;8.75;1.80;;;15.70;99.90;;;;;;4958327;28;211041;-68
2023/07/04 07:03:21;;;;;;;10.63;1.80;;;15.80;99.90;;;;;;5010780;28;20050;-68
2023/07/04 07:05:47;;;;;;;12.05;2.00;;;15.90;99.90;;;;;;4951289;28;216079;-68
2023/07/04 07:08:16;;;;;;;9.18;1.85;;;15.90;99.90;;;;;;4995780;28;20053;-68
2023/07/04 07:11:13;;;;;;;9.68;1.70;;;15.90;99.90;;;;;;4947867;28;210245;-68
2023/07/04 07:13:40;;;;;;;11.85;1.92;;;16.00;99.90;;;;;;4989674;28;20062;-68
2023/07/04 07:16:12;;;;;;;12.77;2.13;;;16.00;99.90;;;;;;4951445;28;210675;-69
2023/07/04 07:18:39;;;;;;;10.75;2.00;;;15.90;99.90;;;;;;5001500;28;20053;-68
2023/07/04 07:21:07;;;;;;;9.40;1.73;;;15.90;99.90;;;;;;4965189;28;209781;-68
2023/07/04 07:23:36;;;;;;;9.63;2.20;;;15.80;99.90;;;;;;5015564;28;20072;-68
2023/07/04 07:26:04;;;;;;;11.05;1.40;;;15.90;99.90;;;;;;4948039;28;211282;-68
2023/07/04 07:28:33;;;;;;;9.52;1.85;;;16.00;99.90;;;;;;5003652;28;20072;-67
2023/07/04 07:31:03;;;;;;;9.82;1.85;;;16.00;99.90;;;;;;4967357;28;212797;-69
2023/07/04 07:33:32;;;;;;;8.98;1.83;;;16.00;99.90;;;;;;5021433;28;20060;-70
2023/07/04 07:36:06;;;;;;;11.68;1.92;;;16.10;99.90;;;;;;4960885;28;218366;-68
2023/07/04 07:38:32;;;;;;;10.40;1.92;;;16.20;99.90;;;;;;5035804;28;20058;-67
2023/07/04 07:40:59;;;;;;;9.10;1.80;;;16.40;99.90;;;;;;4960389;28;213049;-70
2023/07/04 07:43:26;;;;;;;12.43;1.80;;;16.40;99.90;;;;;;5003912;28;20236;-71
2023/07/04 07:45:52;;;;;;;11.13;2.00;;;16.60;99.90;;;;;;4956816;28;208865;-69
2023/07/04 07:48:18;;;;;;;6.22;1.10;;;16.70;99.90;;;;;;5021374;28;20061;-69
2023/07/04 07:50:44;;;;;;;8.73;1.45;;;16.70;99.90;;;;;;4957466;28;207149;-70
2023/07/04 07:53:13;;;;;;;8.20;1.50;;;16.70;99.90;;;;;;5015102;28;20058;-69
2023/07/04 07:55:40;;;;;;;8.70;1.58;;;16.80;99.90;;;;;;4944475;28;207812;-68
2023/07/04 07:58:08;;;;;;;8.93;1.42;;;16.90;99.90;;;;;;4985609;28;20057;-70
2023/07/04 08:00:35;;;;;;;10.15;1.60;;;16.90;99.90;;;;;;4948084;28;206273;-70
2023/07/04 08:03:01;;;;;;;9.05;1.98;;;16.90;99.90;;;;;;5002982;28;20054;-70
2023/07/04 08:05:28;;;;;;;10.25;1.67;;;17.00;99.90;;;;;;4950957;28;207658;-68
2023/07/04 08:07:54;;;;;;;9.02;1.52;;;17.10;99.90;;;;;;5011582;28;20061;-69
2023/07/04 08:10:20;;;;;;;15.25;1.60;;;17.00;99.90;;;;;;4950286;28;209775;-68
2023/07/04 08:12:46;;;;;;;11.23;2.17;;;17.10;99.90;;;;;;5017051;28;20053;-70
2023/07/04 08:15:12;;;;;;;11.57;1.77;;;17.00;99.90;;;;;;4953539;28;209485;-68
2023/07/04 08:17:38;;;;;;;9.55;1.50;;;17.10;99.90;;;;;;5027225;28;20768;-69
2023/07/04 08:20:05;;;;;;;10.75;1.48;;;17.00;99.90;;;;;;4952640;28;207551;-69
2023/07/04 08:22:31;;;;;;;11.93;2.03;;;17.00;99.90;;;;;;5015958;28;20058;-71
2023/07/04 08:24:59;;;;;;;9.82;1.60;;;17.00;99.90;;;;;;4994226;28;207968;-68
2023/07/04 08:27:26;;;;;;;9.38;1.73;;;17.20;99.90;;;;;;4988669;28;105057;-71
2023/07/04 08:29:55;;;;;;;9.90;2.00;;;17.30;99.90;;;;;;5005776;28;20045;-71
2023/07/04 08:32:21;;;;;;;12.40;1.88;;;17.30;99.90;;;;;;4939330;28;208340;-71
2023/07/04 08:34:50;;;;;;;11.13;3.15;;;17.50;99.90;;;;;;5003703;28;20060;-71
2023/07/04 08:37:17;;;;;;;11.80;2.83;;;17.60;99.90;;;;;;4952086;28;207012;-71
2023/07/04 08:39:46;;;;;;;12.68;2.00;;;17.70;99.90;;;;;;5000686;28;20079;-71
2023/07/04 08:42:15;;;;;;;9.68;2.00;;;17.80;99.90;;;;;;4950288;28;209930;-71
2023/07/04 08:44:47;;;;;;;9.90;1.67;;;17.80;99.90;;;;;;5009704;28;20507;-71
2023/07/04 08:47:25;;;;;;;11.10;1.80;;;17.80;99.90;;;;;;4925289;28;184221;-70
2023/07/04 08:50:11;;;;;;;10.10;1.95;;;17.90;99.90;;;;;;5005982;28;20155;-70
2023/07/04 08:52:53;;;;;;;12.05;1.88;;;18.00;99.90;;;;;;4949561;28;77619;-71
2023/07/04 08:55:19;;;;;;;11.63;2.03;;;18.00;99.90;;;;;;4882811;28;1366397;-71
2023/07/04 08:57:56;;;;;;;13.25;3.25;;;18.10;99.90;;;;;;5034580;28;20082;-72
2023/07/04 09:00:28;;;;;;;13.00;2.30;;;18.00;99.90;;;;;;4943903;28;208670;-71
2023/07/04 09:03:03;;;;;;;11.27;2.00;;;18.10;99.90;;;;;;5026905;28;20053;-70
2023/07/04 09:05:35;;;;;;;12.18;2.28;;;18.10;99.90;;;;;;4952112;28;195914;-69
2023/07/04 09:08:14;;;;;;;11.77;1.85;;;18.20;99.90;;;;;;5006335;28;20049;-72
2023/07/04 09:10:52;;;;;;;13.50;2.72;;;18.20;99.60;;;;;;4961804;28;206658;-71
2023/07/04 09:13:54;;;;;;;16.10;2.50;;;18.20;99.90;;;;;;5018341;28;20072;-71
2023/07/04 09:16:40;;;;;;;13.73;2.30;;;18.30;99.90;;;;;;4960935;28;210032;-70
2023/07/04 09:19:12;;;;;;;13.40;2.10;;;18.70;99.50;;;;;;5018054;28;20058;-72
2023/07/04 09:21:38;;;;;;;13.75;2.88;;;19.20;98.60;;;;;;4947471;28;217043;-71
2023/07/04 09:24:05;;;;;;;14.02;2.53;;;19.50;99.20;;;;;;4993256;28;20046;-72
2023/07/04 09:26:50;;;;;;;14.13;3.65;;;19.70;98.10;;;;;;4951176;28;210693;-71
2023/07/04 09:29:20;;;;;;;15.10;3.00;;;19.10;98.30;;;;;;5010397;28;20045;-70
2023/07/04 09:31:57;;;;;;;12.07;2.40;;;19.40;99.30;;;;;;4949631;28;94014;-70
2023/07/04 09:34:46;;;;;;;14.43;2.28;;;19.80;97.60;;;;;;4983622;28;20085;-70
2023/07/04 09:37:18;;;;;;;12.90;2.33;;;20.60;97.60;;;;;;4977126;28;210057;-70
2023/07/04 09:39:56;;;;;;;11.50;2.28;;;21.30;97.30;;;;;;4990015;28;20050;-71
2023/07/04 09:42:39;;;;;;;11.30;2.15;;;21.80;96.30;;;;;;4952075;28;206584;-72
2023/07/04 09:45:08;;;;;;;13.40;2.50;;;22.00;94.90;;;;;;4945006;28;207115;-71
2023/07/04 09:47:36;;;;;;;15.70;3.28;;;21.40;95.50;;;;;;4988248;28;20070;-70
2023/07/04 09:50:23;;;;;;;16.53;3.00;;;21.10;96.20;;;;;;4943337;28;207213;-72
2023/07/04 09:53:02;;;;;;;16.02;2.72;;;20.30;96.80;;;;;;4959999;28;20054;-71
2023/07/04 09:55:28;;;;;;;13.82;2.28;;;20.00;96.70;;;;;;4918362;28;197482;-72
2023/07/04 09:58:21;;;;;;;16.90;4.95;;;19.30;97.30;;;;;;5005041;28;20079;-73
2023/07/04 10:01:24;;;;;;;15.23;2.10;;;19.80;97.10;;;;;;4956694;28;130063;-71
2023/07/04 10:04:05;;;;;;;13.05;2.40;;;20.10;95.90;;;;;;5009418;28;20049;-72
2023/07/04 10:06:33;;;;;;;;;;;20.50;95.80;;;;;;4960083;28;210098;-71
2023/07/04 10:09:06;;;;;;;12.25;2.63;;;20.20;95.50;;;;;;4993293;28;19921;-72
2023/07/04 10:11:37;;;;;;;14.30;2.58;;;20.40;95.60;;;;;;4950962;28;219175;-71
2023/07/04 10:14:07;;;;;;;15.32;2.17;;;21.00;96.00;;;;;;5010432;28;20061;-71
2023/07/04 10:16:34;;;;;;;9.97;2.40;;;21.80;95.10;;;;;;4943225;28;218097;-71
2023/07/04 10:19:09;;;;;;;9.93;1.88;;;22.50;94.80;;;;;;5003765;28;20058;-70
2023/07/04 10:21:42;;;;;;;12.43;2.53;;;22.40;94.60;;;;;;4964496;28;207604;-71
2023/07/04 10:24:24;;;;;;;10.30;2.25;;;22.20;93.60;;;;;;5014641;28;20247;-72
2023/07/04 10:26:58;;;;;;;11.88;2.67;;;21.80;94.70;;;;;;4944087;28;210660;-72
2023/07/04 10:29:32;;;;;;;13.32;3.42;;;21.40;93.90;;;;;;5010431;28;20411;-70
2023/07/04 10:32:03;;;;;;;10.05;2.10;;;21.80;94.30;;;;;;4957474;28;207354;-71
2023/07/04 10:34:30;;;;;;;10.55;1.95;;;22.20;93.80;;;;;;5008490;28;20064;-70
2023/07/04 10:37:01;;;;;;;9.98;1.70;;;22.40;94.00;;;;;;4954621;28;206978;-71
2023/07/04 10:39:31;;;;;;;11.35;1.80;;;22.40;92.50;;;;;;5008660;28;20058;-71
2023/07/04 10:42:11;;;;;;;11.45;2.17;;;22.10;93.00;;;;;;4960429;28;210781;-71
2023/07/04 10:44:39;;;;;;;11.27;1.80;;;22.10;92.70;;;;;;5006126;28;20054;-72
2023/07/04 10:47:19;;;;;;;10.23;1.92;;;22.30;93.30;;;;;;4950465;28;208114;-71
2023/07/04 10:49:54;;;;;;;11.48;2.10;;;22.70;92.80;;;;;;5004609;28;20061;-72
2023/07/04 10:52:29;;;;;;;10.75;1.80;;;22.90;92.30;;;;;;4934798;28;206322;-71
2023/07/04 10:54:56;;;;;;;12.63;1.95;;;23.00;92.50;;;;;;5008040;28;20534;-71
2023/07/04 10:57:25;;;;;;;11.30;2.42;;;23.10;91.30;;;;;;4969524;28;120662;-71
2023/07/04 10:59:57;;;;;;;11.27;2.28;;;22.60;92.00;;;;;;5002394;28;20073;-71
2023/07/04 11:02:55;;;;;;;9.35;1.85;;;22.70;91.60;;;;;;4986874;28;173047;-72
2023/07/04 11:05:35;;;;;;;9.02;1.83;;;22.70;91.50;;;;;;4963617;28;206716;-71
2023/07/04 11:08:06;;;;;;;11.10;2.08;;;22.90;91.40;;;;;;5009387;28;20050;-71
2023/07/04 11:10:38;;;;;;;11.23;2.15;;;23.10;92.10;;;;;;4979899;28;192483;-71
2023/07/04 11:13:05;;;;;;;9.32;1.85;;;23.50;92.60;;;;;;5019625;28;20065;-71
2023/07/04 11:15:35;;;;;;;12.18;2.35;;;23.60;91.00;;;;;;4963095;28;209862;-70
2023/07/04 11:18:02;;;;;;;12.05;2.45;;;23.40;91.20;;;;;;4994298;28;20050;-70
2023/07/04 11:20:51;;;;;;;12.23;2.00;;;23.60;90.90;;;;;;4929192;28;207780;-70
2023/07/04 11:23:20;;;;;;;14.98;2.30;;;23.40;90.90;;;;;;4976481;28;20066;-72
2023/07/04 11:25:48;;;;;;;11.52;2.00;;;22.90;90.80;;;;;;4933529;28;215345;-72
2023/07/04 11:28:33;;;;;;;12.15;2.50;;;23.10;90.90;;;;;;4995373;28;20392;-70
2023/07/04 11:31:16;;;;;;;11.55;2.22;;;23.20;90.30;;;;;;4938768;28;206497;-70
2023/07/04 11:33:49;;;;;;;11.70;2.67;;;23.30;89.90;;;;;;5017409;28;20060;-69
2023/07/04 11:36:29;;;;;;;13.18;2.50;;;23.30;90.50;;;;;;4939491;28;277169;-70
2023/07/04 11:39:03;;;;;;;13.30;2.13;;;23.00;91.50;;;;;;4996107;28;20069;-71
2023/07/04 11:41:38;;;;;;;12.13;2.30;;;22.80;90.80;;;;;;4943002;28;210724;-71
2023/07/04 11:44:32;;;;;;;12.43;2.33;;;22.00;90.80;;;;;;4987530;28;20050;-71
2023/07/04 11:47:05;;;;;;;10.68;2.33;;;22.30;90.90;;;;;;4956329;28;212714;-71
2023/07/04 11:49:33;;;;;;;14.75;2.90;;;22.50;90.80;;;;;;5005546;28;20050;-72
2023/07/04 11:52:25;;;;;;;15.82;3.03;;;22.50;91.40;;;;;;4965438;28;214942;-71
2023/07/04 11:55:26;;;;;;;14.50;3.00;;;22.30;90.90;;;;;;5005606;28;20065;-70
2023/07/04 11:58:18;;;;;;;11.10;2.50;;;22.90;90.20;;;;;;4885227;28;20051;-71
2023/07/04 12:00:44;;;;;;;8.35;1.80;;;23.00;90.50;;;;;;4904844;28;207194;-70
2023/07/04 12:03:20;;;;;;;8.75;1.88;;;23.40;90.60;;;;;;4949638;28;20054;-71
2023/07/04 12:05:58;;;;;;;11.85;1.90;;;23.20;88.70;;;;;;4875329;29;131392;-72
2023/07/04 12:08:47;;;;;;;11.00;2.40;;;23.20;89.90;;;;;;4914659;29;20051;-69
2023/07/04 12:11:21;;;;;;;12.85;2.33;;;23.20;89.10;;;;;;4883618;29;207225;-71
2023/07/04 12:13:49;;;;;;;12.20;2.22;;;23.00;90.10;;;;;;4930732;28;20520;-70
2023/07/04 12:16:21;;;;;;;10.85;2.65;;;22.80;90.40;;;;;;4876329;28;209014;-70
2023/07/04 12:18:48;;;;;;;11.05;2.42;;;22.80;90.00;;;;;;4939353;29;20051;-71
2023/07/04 12:21:19;;;;;;;11.52;2.00;;;23.10;89.50;;;;;;4878693;28;211387;-70
2023/07/04 12:23:46;;;;;;;12.25;2.53;;;23.50;89.70;;;;;;4944388;29;20087;-70
2023/07/04 12:26:21;;;;;;;14.60;2.65;;;23.50;89.50;;;;;;4903938;28;207408;-70
2023/07/04 12:28:50;;;;;;;10.20;2.28;;;23.60;89.00;;;;;;4954412;28;20063;-70
2023/07/04 12:31:17;;;;;;;11.18;2.28;;;23.70;88.50;;;;;;4896476;28;207946;-70
2023/07/04 12:33:46;;;;;;;11.32;2.17;;;23.70;88.40;;;;;;4951030;28;20365;-71
2023/07/04 12:36:16;;;;;;;15.20;2.30;;;23.40;90.00;;;;;;4931603;28;229179;-71
2023/07/04 12:38:54;;;;;;;13.03;2.60;;;23.40;88.20;;;;;;4974079;28;20054;-71
2023/07/04 12:41:23;;;;;;;13.55;3.30;;;23.10;88.40;;;;;;4948148;28;210506;-71
2023/07/04 12:44:04;;;;;;;12.30;2.83;;;22.90;89.20;;;;;;4996524;28;20074;-72
2023/07/04 12:46:32;;;;;;;10.10;2.10;;;23.20;86.80;;;;;;4940459;28;206458;-71
2023/07/04 12:49:00;;;;;;;11.50;2.50;;;23.00;88.20;;;;;;4998536;28;20222;-71